Rechercher aéroport 
image banner adimage banner adimage banner ad
image banner ad

0CA3 - Crawford

Situé à Santa Ynez, United States

ICAO - 0CA3, IATA -

Données fournies par Airmate  

Information générale

Coordonnées: N34°35'15" W120°0'49"
Élévation : 570 feet MSL.
Variation magnétique : 14° East
Voir autres Aéroports à California

Données opérationnelles

Special qualification required
Heure actuelle UTC:
Heure actuelle locale:
Météo à : KIZA - Santa Ynez ( 6 km )
METAR: KIZA 251535Z AUTO 00000KT 4SM BR OVC002 13/12 A3000 RMK AO2
Voir NOTAMs / SUP AIP / TFR affectant cet aéroport [VIEW]
Fréquences de communication: [VIEW]

Pistes:

Identifiant RWYQFULongueur (ft)Largeur (ft)SurfaceLDA (ft)
10210020ASPH
28210020ASPH

Coordonnées de l'aéroport

Adresse: Santa Ynez United States

Vue satellite de 0CA3